createdAt,value
2023-03-22T00:01:32.348Z,98677.19
2023-03-22T00:04:00.775Z,98676.78
2023-03-22T00:06:28.277Z,98677.31
2023-03-22T00:08:55.815Z,98676.16
2023-03-22T00:11:26.811Z,98677.09
2023-03-22T00:13:54.762Z,98674.72
2023-03-22T00:16:22.492Z,98673.75
2023-03-22T00:18:49.801Z,98675.13
2023-03-22T00:21:18.390Z,98678.06
2023-03-22T00:23:46.419Z,98671.53
2023-03-22T00:26:15.469Z,98670.69
2023-03-22T00:28:43.631Z,98669.94
2023-03-22T00:31:11.733Z,98664.88
2023-03-22T00:33:39.083Z,98667.47
2023-03-22T00:36:11.109Z,98670.50
2023-03-22T00:38:42.844Z,98662.50
2023-03-22T00:41:20.857Z,98669.38
2023-03-22T00:43:50.394Z,98654.47
2023-03-22T00:46:21.142Z,98649.78
2023-03-22T00:48:49.339Z,98654.94
2023-03-22T00:51:18.049Z,98658.56
2023-03-22T00:53:49.489Z,98656.28
2023-03-22T00:56:16.982Z,98642.69
2023-03-22T00:59:06.421Z,98643.13
2023-03-22T01:01:33.700Z,98645.31
2023-03-22T01:04:03.052Z,98637.31
2023-03-22T01:06:33.275Z,98641.81
2023-03-22T01:09:00.663Z,98647.00
2023-03-22T01:11:28.562Z,98639.91
2023-03-22T01:13:55.830Z,98633.44
2023-03-22T01:16:23.101Z,98633.47
2023-03-22T01:18:50.343Z,98633.59
2023-03-22T01:21:18.345Z,98633.56
2023-03-22T01:23:46.611Z,98631.88
2023-03-22T01:26:13.921Z,98627.88
2023-03-22T01:28:41.144Z,98622.94
2023-03-22T01:31:08.524Z,98614.06
2023-03-22T01:33:35.725Z,98616.13
2023-03-22T01:36:03.426Z,98619.94
2023-03-22T01:38:31.244Z,98629.34
2023-03-22T01:41:01.001Z,98609.84
2023-03-22T01:43:31.973Z,98602.50
2023-03-22T01:46:00.036Z,98610.34
2023-03-22T01:48:46.615Z,98603.09
2023-03-22T01:51:25.330Z,98606.81
2023-03-22T01:54:44.858Z,98598.06
2023-03-22T01:57:42.290Z,98594.78
2023-03-22T02:00:16.755Z,98594.59
2023-03-22T02:03:04.403Z,98604.13
2023-03-22T02:05:37.141Z,98592.25
2023-03-22T02:08:05.477Z,98598.50
2023-03-22T02:10:51.412Z,98599.13
2023-03-22T02:13:56.169Z,98595.50
2023-03-22T02:17:13.569Z,98595.31
2023-03-22T02:20:22.091Z,98590.34
2023-03-22T02:23:39.247Z,98580.84
2023-03-22T02:26:46.964Z,98580.69
2023-03-22T02:30:13.101Z,98584.97
2023-03-22T02:33:16.733Z,98576.88
2023-03-22T02:36:25.749Z,98588.56
2023-03-22T02:39:36.158Z,98581.56
2023-03-22T02:42:35.353Z,98591.44
2023-03-22T02:45:29.037Z,98592.97
2023-03-22T02:48:06.671Z,98584.31
2023-03-22T02:50:54.634Z,98590.47
2023-03-22T02:53:48.316Z,98588.75
2023-03-22T02:56:39.251Z,98588.06
2023-03-22T02:59:12.098Z,98583.19
2023-03-22T03:01:58.251Z,98572.56
2023-03-22T03:04:32.960Z,98583.19
2023-03-22T03:07:09.390Z,98584.94
2023-03-22T03:09:42.898Z,98582.41
2023-03-22T03:12:26.536Z,98592.97
2023-03-22T03:14:56.218Z,98588.97
2023-03-22T03:17:51.245Z,98585.75
2023-03-22T03:20:49.530Z,98586.75
2023-03-22T03:23:38.571Z,98587.41
2023-03-22T03:26:45.453Z,98588.66
2023-03-22T03:29:33.002Z,98595.25
2023-03-22T03:32:38.443Z,98597.41
2023-03-22T03:35:22.574Z,98597.84
2023-03-22T03:37:57.723Z,98590.16
2023-03-22T03:40:35.391Z,98600.91
2023-03-22T03:43:06.643Z,98594.50
2023-03-22T03:45:37.102Z,98606.22
2023-03-22T03:48:21.833Z,98601.53
2023-03-22T03:50:53.692Z,98598.88
2023-03-22T03:53:21.063Z,98598.16
2023-03-22T03:55:48.755Z,98611.50
2023-03-22T03:58:16.831Z,98600.50
2023-03-22T04:00:47.688Z,98602.94
2023-03-22T04:03:40.746Z,98611.41
2023-03-22T04:06:13.701Z,98606.59
2023-03-22T04:08:46.060Z,98615.13
2023-03-22T04:11:16.191Z,98607.44
2023-03-22T04:13:45.600Z,98611.28
2023-03-22T04:16:17.420Z,98603.94
2023-03-22T04:18:44.701Z,98602.28
2023-03-22T04:21:13.505Z,98612.84
2023-03-22T04:23:50.210Z,98607.06
2023-03-22T04:26:18.618Z,98603.44
2023-03-22T04:29:00.490Z,98606.22
2023-03-22T04:31:28.631Z,98609.25
2023-03-22T04:34:06.567Z,98598.66
2023-03-22T04:36:49.819Z,98610.91
2023-03-22T04:39:40.474Z,98603.59
2023-03-22T04:42:34.890Z,98604.88
2023-03-22T04:45:29.231Z,98599.59
2023-03-22T04:48:01.224Z,98605.88
2023-03-22T04:50:29.299Z,98595.25
2023-03-22T04:53:00.686Z,98601.41
2023-03-22T04:55:28.013Z,98597.69
2023-03-22T04:57:55.294Z,98596.94
2023-03-22T05:00:24.598Z,98590.94
2023-03-22T05:02:53.776Z,98598.00
2023-03-22T05:05:33.152Z,98590.09
2023-03-22T05:08:02.809Z,98590.78
2023-03-22T05:10:29.992Z,98586.69
2023-03-22T05:12:58.754Z,98587.88
2023-03-22T05:15:35.617Z,98578.63
2023-03-22T05:18:04.628Z,98573.56
2023-03-22T05:20:32.516Z,98570.91
2023-03-22T05:23:21.234Z,98568.53
2023-03-22T05:25:54.521Z,98567.09
2023-03-22T05:28:22.758Z,98570.47
2023-03-22T05:31:21.710Z,98568.34
2023-03-22T05:34:08.071Z,98583.38
2023-03-22T05:36:36.998Z,98579.03
2023-03-22T05:39:24.531Z,98576.88
2023-03-22T05:41:52.669Z,98579.16
2023-03-22T05:44:20.244Z,98581.78
2023-03-22T05:47:09.554Z,98569.66
2023-03-22T05:49:48.365Z,98567.47
2023-03-22T05:52:15.787Z,98572.41
2023-03-22T05:55:03.982Z,98579.16
2023-03-22T05:57:31.464Z,98573.97
2023-03-22T05:59:59.332Z,98579.88
2023-03-22T06:02:41.552Z,98575.03
2023-03-22T06:05:13.858Z,98570.78
2023-03-22T06:07:42.957Z,98562.72
2023-03-22T06:10:17.692Z,98567.59
2023-03-22T06:12:45.484Z,98574.81
2023-03-22T06:15:22.244Z,98578.63
2023-03-22T06:18:09.760Z,98576.53
2023-03-22T06:20:42.112Z,98565.13
2023-03-22T06:23:15.798Z,98571.16
2023-03-22T06:25:46.162Z,98571.22
2023-03-22T06:28:13.771Z,98585.38
2023-03-22T06:30:48.999Z,98581.59
2023-03-22T06:33:25.649Z,98584.03
2023-03-22T06:36:00.940Z,98588.38
2023-03-22T06:39:00.865Z,98595.34
2023-03-22T06:41:28.434Z,98594.94
2023-03-22T06:43:55.863Z,98597.91
2023-03-22T06:46:47.484Z,98593.38
2023-03-22T06:49:26.875Z,98594.53
2023-03-22T06:51:56.110Z,98591.81
2023-03-22T06:54:23.829Z,98594.63
2023-03-22T06:56:51.168Z,98590.06
2023-03-22T06:59:18.524Z,98597.44
2023-03-22T07:01:46.119Z,98594.09
2023-03-22T07:04:13.397Z,98611.25
2023-03-22T07:06:41.555Z,98601.63
2023-03-22T07:09:10.256Z,98606.56
2023-03-22T07:11:38.294Z,98605.06
2023-03-22T07:14:05.788Z,98601.69
2023-03-22T07:16:50.584Z,98595.63
2023-03-22T07:19:19.443Z,98599.81
2023-03-22T07:21:47.728Z,98598.13
2023-03-22T07:24:15.362Z,98591.31
2023-03-22T07:26:42.879Z,98603.59
2023-03-22T07:29:15.139Z,98606.59
2023-03-22T07:31:42.739Z,98604.44
2023-03-22T07:34:22.208Z,98610.81
2023-03-22T07:37:03.068Z,98608.50
2023-03-22T07:39:31.527Z,98607.75
2023-03-22T07:41:59.209Z,98601.97
2023-03-22T07:44:27.241Z,98611.09
2023-03-22T07:47:12.746Z,98603.72
2023-03-22T07:49:47.540Z,98606.16
2023-03-22T07:52:19.362Z,98608.53
2023-03-22T07:54:49.021Z,98612.72
2023-03-22T07:57:16.557Z,98602.41
2023-03-22T07:59:53.631Z,98604.34
2023-03-22T08:02:21.387Z,98600.84
2023-03-22T08:04:56.420Z,98609.00
2023-03-22T08:07:39.149Z,98603.66
2023-03-22T08:10:07.294Z,98594.06
2023-03-22T08:12:36.457Z,98599.97
2023-03-22T08:15:14.072Z,98604.38
2023-03-22T08:17:42.946Z,98607.03
2023-03-22T08:20:20.156Z,98606.09
2023-03-22T08:22:55.425Z,98605.22
2023-03-22T08:26:01.304Z,98610.47
2023-03-22T08:28:28.738Z,98611.94
2023-03-22T08:30:56.108Z,98611.41
2023-03-22T08:33:23.849Z,98612.56
2023-03-22T08:35:52.443Z,98617.47
2023-03-22T08:38:20.470Z,98605.44
2023-03-22T08:40:51.973Z,98604.47
2023-03-22T08:43:23.184Z,98594.28
2023-03-22T08:45:52.021Z,98598.19
2023-03-22T08:48:21.187Z,98590.66
2023-03-22T08:51:07.911Z,98587.81
2023-03-22T08:54:03.938Z,98591.66
2023-03-22T08:56:50.284Z,98589.06
2023-03-22T08:59:40.935Z,98589.00
2023-03-22T09:02:22.971Z,98583.53
2023-03-22T09:04:50.847Z,98579.88
2023-03-22T09:07:24.221Z,98589.03
2023-03-22T09:10:07.312Z,98578.25
2023-03-22T09:12:39.096Z,98575.13
2023-03-22T09:15:07.616Z,98571.28
2023-03-22T09:17:37.329Z,98565.75
2023-03-22T09:20:12.807Z,98565.28
2023-03-22T09:22:42.939Z,98566.28
2023-03-22T09:25:13.280Z,98557.94
2023-03-22T09:27:43.555Z,98567.75
2023-03-22T09:30:11.638Z,98568.22
2023-03-22T09:32:42.271Z,98560.72
2023-03-22T09:35:12.215Z,98554.25
2023-03-22T09:37:56.202Z,98554.06
2023-03-22T09:40:30.677Z,98547.41
2023-03-22T09:43:04.695Z,98543.00
2023-03-22T09:45:49.016Z,98542.59
2023-03-22T09:48:39.650Z,98536.47
2023-03-22T09:51:43.923Z,98540.50
2023-03-22T09:54:34.241Z,98531.09
2023-03-22T09:57:38.950Z,98536.44
2023-03-22T10:00:20.892Z,98529.19
2023-03-22T10:02:51.329Z,98527.94
2023-03-22T10:05:53.325Z,98513.91
2023-03-22T10:09:20.454Z,98507.66
2023-03-22T10:12:30.449Z,98500.28
2023-03-22T10:15:06.407Z,98490.75
2023-03-22T10:17:39.758Z,98499.22
2023-03-22T10:20:40.565Z,98499.47
2023-03-22T10:23:20.888Z,98490.66
2023-03-22T10:25:50.651Z,98487.22
2023-03-22T10:28:30.344Z,98490.91
2023-03-22T10:30:59.010Z,98470.69
2023-03-22T10:33:52.097Z,98470.06
2023-03-22T10:36:27.043Z,98467.19
2023-03-22T10:39:16.728Z,98456.50
2023-03-22T10:41:46.677Z,98458.91
2023-03-22T10:44:20.540Z,98460.50
2023-03-22T10:46:51.954Z,98460.78
2023-03-22T10:49:35.936Z,98456.88
2023-03-22T10:52:37.424Z,98458.09
2023-03-22T10:55:11.967Z,98449.03
2023-03-22T10:57:40.085Z,98450.78
2023-03-22T11:00:12.662Z,98452.03
2023-03-22T11:02:59.608Z,98442.75
2023-03-22T11:05:30.236Z,98451.31
2023-03-22T11:07:59.090Z,98451.50
2023-03-22T11:10:32.915Z,98436.31
2023-03-22T11:13:09.497Z,98450.88
2023-03-22T11:15:43.599Z,98447.06
2023-03-22T11:18:16.868Z,98431.47
2023-03-22T11:20:59.192Z,98426.66
2023-03-22T11:23:38.649Z,98429.63
2023-03-22T11:26:12.105Z,98432.16
2023-03-22T11:28:51.199Z,98419.50
2023-03-22T11:31:20.888Z,98415.88
2023-03-22T11:34:01.472Z,98404.91
2023-03-22T11:36:29.525Z,98409.19
2023-03-22T11:39:07.360Z,98411.22
2023-03-22T11:41:40.834Z,98401.88
2023-03-22T11:44:18.318Z,98404.31
2023-03-22T11:47:02.428Z,98400.13
2023-03-22T11:49:52.078Z,98396.72
2023-03-22T11:52:26.504Z,98389.72
2023-03-22T11:54:56.168Z,98385.88
2023-03-22T11:57:31.558Z,98380.53
2023-03-22T12:00:21.456Z,98383.47
2023-03-22T12:03:01.968Z,98377.28
2023-03-22T12:05:33.795Z,98373.34
2023-03-22T12:08:11.323Z,98363.38
2023-03-22T12:10:52.665Z,98352.72
2023-03-22T12:13:31.984Z,98344.22
2023-03-22T12:16:06.698Z,98339.75
2023-03-22T12:18:50.849Z,98331.91
2023-03-22T12:21:18.284Z,98335.69
2023-03-22T12:23:45.686Z,98332.44
2023-03-22T12:26:26.049Z,98332.00
2023-03-22T12:29:09.797Z,98328.19
2023-03-22T12:31:43.681Z,98330.84
2023-03-22T12:34:21.659Z,98330.25
2023-03-22T12:36:56.476Z,98328.06
2023-03-22T12:39:35.462Z,98332.75
2023-03-22T12:42:57.675Z,98322.72
2023-03-22T12:45:33.119Z,98326.84
2023-03-22T12:48:18.277Z,98325.28
2023-03-22T12:51:18.661Z,98309.03
2023-03-22T12:53:55.344Z,98315.25
2023-03-22T12:56:35.779Z,98312.25
2023-03-22T12:59:13.999Z,98311.56
2023-03-22T13:02:30.138Z,98317.66
2023-03-22T13:05:06.713Z,98318.72
2023-03-22T13:07:48.159Z,98307.63
2023-03-22T13:10:51.011Z,98304.50
2023-03-22T13:13:24.258Z,98304.38
2023-03-22T13:16:09.146Z,98302.44
2023-03-22T13:18:37.750Z,98302.06
2023-03-22T13:21:37.596Z,98287.22
2023-03-22T13:24:15.457Z,98293.78
2023-03-22T13:26:55.355Z,98290.75
2023-03-22T13:29:36.272Z,98288.00
2023-03-22T13:32:33.172Z,98280.72
2023-03-22T13:35:00.892Z,98272.38
2023-03-22T13:38:02.868Z,98282.66
2023-03-22T13:41:03.601Z,98279.84
2023-03-22T13:43:46.947Z,98270.44
2023-03-22T13:46:49.910Z,98255.59
2023-03-22T13:49:58.314Z,98253.59
2023-03-22T13:52:43.302Z,98253.31
2023-03-22T13:55:54.455Z,98251.50
2023-03-22T13:58:36.077Z,98241.88
2023-03-22T14:01:14.745Z,98244.44
2023-03-22T14:03:47.456Z,98233.25
2023-03-22T14:06:26.970Z,98229.00
2023-03-22T14:09:06.136Z,98229.25
2023-03-22T14:11:56.539Z,98230.16
2023-03-22T14:14:35.612Z,98225.03
2023-03-22T14:17:50.421Z,98210.69
2023-03-22T14:20:23.695Z,98214.34
